Yan An, China
Current Conditions -  °F | °C
As of 2:00 AM on Monday 24 Nov 2014 (Local Time) from ZLXY Reporting Station
Light Rain Light Rain  
Wind Chill: 42°   Ceiling: 3000
Heat Index: 45°   Visibility: 0.43mi
Dew Point: 43°   Wind: 4mph
Humidity: 93%   Direction: 230°SW
Pressure: 30.3"   Gusts: NA
Location:  36.6°N, 109.5°E
Report Text: ZLXY 231800Z 23002MPS 0700 R23R/1100N R23L/1000D -RA FGFEW007BKN030 OVC050 07/06 Q1026 NOSIG
Loading
Personal Weather Stations






























Interactive Weather Map New forecast layout! Learn more

10-Day Weather Forecast

Advertisements
Track Severe Weather on mobile